Katl taf. METAR for: KATL (Atlanta/Hartsfield I, GA, US) Text: K...

Prepared:10/4/23 12:20 PM by: valid for 12 hours. FOR

A METAR (METeorological Aerodrome Report) is an observation and provides information about the current weather. A TAF (Terminal Area Forecast) provides a forecast for a longer period, for example 8, 24 or 36 hours. Both are prepared for aviation and contain weather information that pilots need. This is how you read a METAR. katl 122152z 05015g19kt 10sm bkn022 ovc030 19/14 a2983 rmk ao2 slp096 t01940144 $ katl 122157z 1222/1324 05015kt p6sm bkn022 ovc030 fm130000 08009kt p6sm sct025 bkn040 fm130700 07008kt p6sm vcsh sct008 bkn012 fm131300 08011kt 6sm -radz br bkn008 fm132200 08008kt 5sm -radz br ovc006. kceu 122154z auto 09005kt 10sm …Data at: 1735 UTC 11 Oct 2023. KATL 111652Z 30004KT 10SM FEW130 BKN160 OVC200 23/12 A2996 RMK AO2 SLP139 VIRGA OHD-ALQDS T02280122 $. KATL 111548Z 1116/1218 25005KT P6SM SCT150 OVC250. FM112000 19005KT P6SM -RA SCT025 OVC090. FM120100 15007KT P6SM -RA SCT015 OVC030.Impacts TAF Board. TAF Home. Plot. Data. Board. Info. For situational awareness. Not to be used for flight planning purposes. IDs: KATL - Atlanta/Hartsfield I, GA, US. Issued at 2000 UTC 20 Jul 2023. Updated at 2039 UTC 20 Jul 2023. Potential Impact: None: Slight: Moderate: High: Time 1952Z 20/21Z 20/22Z 20/23Z 21/00Z 21/01ZMETAR KATL 040052Z 32008KT 10SM CLR 17/03 A2989 RMK AO2 SLP117 T01720033. ... KFTY - Fulton County Executive/Charlie Brown Field (9.7 NM) METAR TAF KHMP - Atlanta Speedway Airport (16 NM) METAR KPDK - Dekalb-Peachtree Airport (16 NM) METAR TAF KMGE - Dobbins Air Reserve Base (17 NM) METAR TAF.METAR KATL 101852Z VRB04KT 10SM SCT050 SCT180 BKN250 28/16 A3010 RMK AO2 SLP183 T02780156. There is little or no wind from a variable direction. Visibility is 10 mi. The ceiling, broken or more, is 25,000 ft. …> Airports > KATL > METAR TAF. Airports. Home. World Map. Airport list. Australia ... KATL 101952Z 1020/1124 21013KT P6SM FEW050 SCT150 SCT250 FM110200 24004KT P6SM ... 33.6367, -84.4281. Local time. Oct 25, 2022 01:54. Change. Hartsfield Jackson Atlanta International Airport is a large airport in Fulton County, Georgia, United States. The airport has 5 runways: 8L/26R, 8R/26L, 9L/27R, 9R/27L and 10/28. The ICAO designator of this field is KATL and it's IATA code is ATL. Nearby other airfields are Coleman ...KCVC 110335Z AUTO 00000KT 10SM CLR 18/13 A2989 RMK AO2. No TAF found for KCVC. KATL 110252Z 22005KT 10SM SCT200 BKN250 21/13 A2990 RMK AO2 SLP117 T02060128 51007 $. KATL 110159Z 1102/1206 23007KT P6SM FEW080 BKN200 BKN250. FM111200 24003KT P6SM OVC250.[Controlled] KATL,ATL (Atlanta,Georgia,US) Concrete 3,042m. Information on this website may be inaccurate or outdated and is intended for Flight Simulator navigating or for Pre-flight Training purposes only!KATL 122152Z 05015G19KT 10SM BKN022 OVC030 19/14 A2983 RMK AO2 SLP096 T01940144 $ Services; ... Terminal Area Forecast. KATL. RAW. Reported. Thu, 10/12 3:44 PM EDT.TAF KATL 121720Z 121818 20012KT 5SM HZ BKN030 FM2000 3SM TRSA OVC025CB FM 2200 33015G20KT P6SM BKN015 OVC040 BECMG 0608 02008K BKN 040 BECMG 1012 00000KT P6SM CLR= no because the ceiling and visibility are forecast to be at or above 2,000 ft and 3 miles within 1 hour before to 1 hour after the ETA no because the …Temperature 16 °C Humidity 82 % Pressure 1015 hPa Visibility: 16.1 km Clear sky Change units METAR: KATL 070952Z 32009KT 10SM CLR 16/13 A2998 RMK AO2 SLP147 T01560128 $ Time: 06:47 (10:47 UTC) Forecast The report was made 1 hour and 17 minutes ago, at 09:30 UTC Forecast valid from 07 at 10 UTC to 08 at 12 UTC Wind 9 kt from the NorthwestNOTE: LAMP data beyond the time of the TAF data is denoted as LAMP in Type and colored magenta. Raw TAF KMSP 210900Z 2109/2212 14006KT P6SM FEW250 FM212000 15010KT P6SM FEW250 Raw METAR KMSP 210853Z 14004KT 10SM CLR 19/14 A3009 RMK AO2 SLP185 T01890144 52010 KMSP 210753Z 13003KT 10SM CLR 19/14 A3008 RMK AO2 SLP182 T01890144 KMSP 210653Z 15005KT 10SM CLR 19/14 A3007 RMK AO2 SLP179 T01940144 ... Raw TAF. KATL 210804Z 2108/2212 09006KT P6SM FEW050 BKN080. FM211600 07010KT P6SM SCT040. FM220300 10007KT P6SM SCT250. FM220900 06006KT P6SM BKN250. Raw METAR. KATL 210752Z 08006KT 10SM FEW045 SCT250 19/15 A3014 RMK AO2 SLP196 T01940150. KATL 210652Z 07005KT 10SM BKN070 BKN250 21/16 A3014 RMK AO2 SLP196 T02110156.METAR Chicago Midway International Airport - KMDW/MDW. Chicago Midway International Airport is a large airport in Illinois, United States. The airport is located at latitude 41.78594 and longitude -87.75253. The airport has 5 runways: 13C/31C, 4R/22L, 4L/22R, 13L/31R and 13R/31L.METAR text: KIAH 091653Z 16007KT 10SM FEW180 FEW250 26/09 A3001 RMK AO2 SLP160 T02560094. Conditions at: KIAH (HOUSTON/INTNL , TX, US) observed 1653 UTC 09 October 2023. Temperature: 25.6°C (78°F) Dewpoint: 9.4°C (49°F) [RH = 36%] Pressure (altimeter):KATL - Atlanta/Hartsfield I, GA, US Issued at 0733 UTC 25 Aug 2023 Updated at 0817 UTC 25 Aug 2023 Potential Impact None Slight Moderate High NOTE: LAMP data beyond the time of the TAF data is denoted as LAMP in Type and colored magenta. Raw TAF KATL 250733Z 2508/2612 30008KT P6SM BKN170 FM251600 31009KT P6SM SCT040 FM260100 33005KT P6SM FEW250KATL - Atlanta/Hartsfield I, GA, US. Updated at: 2100 UTC 08 Sep 2023 Latest TAF at: 1945 UTC 08 Sep 2023. TAF Board. Time 2052Z 08/21Z 08/22Z 08/23Z 09/00Z 09/01Z 09/02Z METAR KATL 040052Z 32008KT 10SM CLR 17/03 A2989 RMK AO2 SLP117 T01720033. ... KFTY - Fulton County Executive/Charlie Brown Field (9.7 NM) METAR TAF KHMP - Atlanta Speedway Airport (16 NM) METAR KPDK - Dekalb-Peachtree Airport (16 NM) METAR TAF KMGE - Dobbins Air Reserve Base (17 NM) METAR TAF.KATL METAR TAF AREA METARS AREA TAFS. KATL. UTC. Hartsfield Jackson Atlanta International Airport Atlanta, Georgia, United States. METAR - Current.NOTE: LAMP data beyond the time of the TAF data is denoted as LAMP in Type and colored magenta. Raw TAF KJFK 091952Z 0920/1024 23014G20KT P6SM BKN060 FM092200 24012KT P6SM SCT060 FM100300 24007KT P6SM BKN050 FM101600 23010KT P6SM SCT060 Raw METAR KJFK 092251Z 25010KT 10SM FEW055 SCT075 14/05 A2979 RMK AO2 SLP087 T01390050 KJFK 092151Z 24011KT 10SM FEW055 SCT090 SCT250 14/04 A2977 RMK AO2 ...Weather radar, wind and waves forecast for kiters, surfers, paragliders, pilots, sailors and anyone else. Worldwide animated weather map, with easy to use layers and precise spot forecast. METAR, TAF and NOTAMs for any airport in the World. SYNOP codes from weather stations and buoys. Forecast models ECMWF, GFS, NAM and NEMSHartsfield-Jackson Atlanta International is a large airport in Georgia, United States. The airport is located at latitude 33.63662 and longitude -84.42802. The airport has 5 runways: 9L/27R, 8R/26L, 8L/26R, 9R/27L and 10/28. The ICAO airport code of this field is KATL. The local airport ID (FAA LID) of this airport is ATL.TAF KATL 121720Z 121818 20012KT 5SM HZ BKN030 FM2000 3SM TSRA OVC025CB FM2200 33015G20KT P6SM BKN015 OVC040 BECMG 0608 02008KT BKN040 BECMG 1012 00000KT P6SM CLR= Definition. No, because the ceiling and visibility are forecast to be at or above 2,000 ft and 3 miles within 1 hour before and 1 hour after the ETA.Updated at 1124 UTC 01 Oct 2023. NOTE: LAMP data beyond the time of the TAF data is denoted as LAMP in Type and colored magenta. For situational awareness. Not to be used for flight planning purposes. Aviation Weather Center Homepage provides comprehensive user-friendly aviation weather Text products and graphics.Atlanta (KATL) ... Hartsfield–Jackson began with a five-year, rent-free lease on 287 acres that was an abandoned auto racetrack named The Atlanta Speedway. The ...Forecast. TAF: KATL 011720Z 0118/0224 08010KT P6SM SCT040 FM020000 08004KT P6SM FEW250 FM021500 08008KT P6SM SCT040. Weather observations and forecasts of more than 4000 airports (METAR and TAF reports). The available stations are represented by yellow and red dots on the map. Hover mouse over dot to see the name of the station. Impacts TAF Board. TAF Home. Plot. Data. Board. Info. For situational awareness. Not to be used for flight planning purposes. IDs: KATL - Atlanta/Hartsfield I, GA, US. Issued at 1124 UTC 03 Sep 2023. Updated at 1358 UTC 03 Sep 2023. Potential Impact: None: Slight: Moderate: High: Time 1352Z 03/14Z 03/15Z 03/16Z 03/17Z 03/18ZMETAR for: KATL (Atlanta/Hartsfield I, GA, US) Text: KATL 011252Z 08008KT 9SM FEW007 BKN030 BKN046 19/17 A3026 RMK AO2 SLP240 MDT CU SW W T01940172 $METAR KATL 010652Z 08007KT 10SM BKN250 19/16 A3004 RMK AO2 SLP165 T01890161 $. The wind is from direction 080° with a speed of 7 kt. Visibility is 10 mi. The ceiling, broken or more, is 25,000 ft. The temperature and wind chill are 19 °C.METAR history KATL · Hartsfield-Jackson Atlanta International Recent 2023 2022 2021 2020 2019 2018 2017 2016 2015 2014 2013 2012 2011 2010 2009 2008 2007 Select a date to see all historical METARs of Hartsfield …Format: Raw Decoded Include METAR. Data at: 1725 UTC 11 Oct 2023. Region: TOP. KATL 111548Z 1116/1218 25005KT P6SM SCT150 OVC250. FM112000 19005KT P6SM -RA SCT025 OVC090. FM120100 15007KT P6SM -RA SCT015 OVC030. FM120400 10012KT 6SM -RA BR SCT008 OVC015.A METAR (METeorological Aerodrome Report) is an observation and provides information about the current weather. A TAF (Terminal Area Forecast) provides a forecast for a longer period, for example 8, 24 or 36 hours. Both are prepared for aviation and contain weather information that pilots need. This is how you read a METAR PreparationImpacts TAF Board. TAF Home. Plot. Data. Board. Info. For situational awareness. Not to be used for flight planning purposes. IDs: KATL - Atlanta/Hartsfield I, GA, US. Issued at 0305 UTC 17 May 2023. Updated at 0410 UTC 17 May 2023. Potential Impact: None: Slight: Moderate: High: Time 0407Z 17/05Z 17/06Z 17/07Z 17/08Z 17/09ZMETAR history KATL · Hartsfield-Jackson Atlanta International Recent 2023 2022 2021 2020 2019 2018 2017 2016 2015 2014 2013 2012 2011 2010 2009 2008 2007 Select a date to see all historical METARs of Hartsfield …Most IFR operations don't require an alternate airport. That's because the advertised weather often is better than required to select one and list it in a flight plan. That doesn't mean we shouldn't at least have something in mind as an alternative place to land if, say, some nummy lands gear-up at your destination or, as we saw in December 2017, an …KATL - Atlanta/Hartsfield I, GA, US Issued at 0733 UTC 25 Aug 2023 Updated at 0817 UTC 25 Aug 2023 Potential Impact None Slight Moderate High NOTE: LAMP data beyond the time of the TAF data is denoted as LAMP in Type and colored magenta. Raw TAF KATL 250733Z 2508/2612 30008KT P6SM BKN170 FM251600 31009KT P6SM SCT040 FM260100 33005KT P6SM FEW250METAR Hartsfield-Jackson Atlanta International - KATL/ATL. Hartsfield-Jackson Atlanta International is a large airport in Georgia, United States. The airport is located at latitude 33.63662 and longitude -84.42802. The airport has 5 runways: 9L/27R, 8R/26L, 8L/26R, 9R/27L and 10/28.E6B, NavLog Calculator, Weather Reports, METAR, TAF, Wind Components, Instrument Simulator, Weight and Balance, Pressure Altitude, Density Altitude, True Air Speed ...IDs: Format: Raw Decoded Include TAF. Data at: 1011 UTC 07 Oct 2023. KATL 070952Z 32009KT 10SM CLR 16/13 A2998 RMK AO2 SLP147 T01560128 $. KATL 070852Z 32009KT 10SM FEW250 17/14 A2997 RMK AO2 SLP143 T01670144 55002 $. KATL 070752Z 32010KT 10SM FEW100 FEW250 17/16 A2997 RMK AO2 SLP142 T01720156 $. KATL 070652Z 32012KT 10SM FEW006 FEW100 18/16 ... This regulation (91.167) applies to civil aircraft regardless of the equipment used for navigation (e.g. GPS/WAAS). However, if your aircraft has a properly installed and operated GPS (see the TSO requirements in the AIM/AC references below) you can flight plan to your destination and alternate as follows:METAR KATL 222252Z 05007KT 10SM FEW055 26/12 A3003 RMK AO2 SLP160 T02610122. The wind is from direction 050° with a speed of 7 kt. Visibility is 10 mi. ... METAR KPDK - Dekalb-Peachtree Airport (16 NM) METAR TAF KMGE - Dobbins Air Reserve Base (17 NM) METAR TAF. 22 September 18:52 LT 3d . This METAR is from …katl 101652z 20009kt 10sm few200 sct250 25/11 a2993 rmk ao2 slp129 t02500106 $ TAF KATL 101952Z 1020/1124 21013KT P6SM FEW050 SCT150 SCT250 FM110200 24004KT P6SM SCT150 BKN250 FM112100 19006KT P6SM -RA BKN050 OVC100taf; katl 18nm n : 081726z 0818/0924 31010g20kt p6sm skc fm082000 31012kt p6sm skc fm090000 30005kt p6sm skc fm091300 23005kt p6sm skc fm091700 23009kt p6sm skctaf; katl : 122157z 1222/1324 05015kt p6sm bkn022 ovc030 fm130000 08009kt p6sm sct025 bkn040 fm130700 07008kt p6sm vcsh sct008 bkn012 fm131300 08011kt 6sm -radz br ...METAR Home. Plot. Data. Board. Info. IDs: Format: Raw Decoded Include TAF. Data at: 1914 UTC 12 Oct 2023. KATL 121852Z 08012G21KT 10SM OVC021 19/14 A2980 RMK AO2 SLP086 T01940144 $. KATL 121730Z 1218/1324 07015G24KT P6SM OVC015.METAR KATL 200852Z 14003KT 10SM FEW009 OVC021 18/17 A3008 RMK AO2 SLP180 T01830167 55002 $. The wind is from direction 140° with a speed of 3 kt. Visibility is 10 mi. The ceiling, broken or more, is 2,100 …KATL TAF Hartsfield Jackson Atlanta International Airport KATL 042336Z 0500/0606 11006KT P6SM BKN200 Observation time: 2:22 hr. ago Need help? Read our tutorial on how to read TAFs or read the parsed version below. KATL - Atlanta/Hartsfield I, GA, US Issued at 0542 UTC 12 Oct 2023 Updated at 0552 UTC 12 Oct 2023 Potential Impact None Slight Moderate High NOTE: LAMP data beyond the time of the TAF data is denoted as LAMP in Type and colored magenta. Raw TAF KATL 120542Z 1206/1312 09012KT 5SM -RA BR SCT007 OVC010 TEMPO 1209/1213 4SM RA BR OVC005KATL - Atlanta/Hartsfield I, GA, US Issued at 0348 UTC 10 Oct 2023 Updated at 0501 UTC 10 Oct 2023 Potential Impact None Slight Moderate High NOTE: LAMP data beyond the time of the TAF data is denoted as LAMP in Type and colored magenta. Raw TAF KATL 100348Z 1004/1106 23006KT P6SM SKC FM101800 24012KT P6SM SCT250 FM110000 24006KT P6SM SCT250> Airports > KATL > METAR TAF. Airports. Home. World Map. Airport list. Australia ... KATL 101952Z 1020/1124 21013KT P6SM FEW050 SCT150 SCT250 FM110200 24004KT P6SM ... TAF for: KATL (Atlanta/Hartsfield I, GA, US) issued at 2326 UTC 01 Oct 2023: Text: KATL 012326Z 0200/0306 08007KT P6SM FEW050 SCT200 : Forecast period: 0000 to 0200 UTC 02 October 2023: Forecast type: FROM: standard forecast or significant change: Winds: from the E (80 degrees) at 8 MPH (7 knots; 3.6 m/s) Visibility: 6 or more sm (10+ km) Ceiling: KATL - Atlanta/Hartsfield I, GA, US. Updated at: 2100 UTC 08 Sep 2023 Latest TAF at: 1945 UTC 08 Sep 2023. TAF Board. Time 2052Z 08/21Z 08/22Z 08/23Z 09/00Z 09/01Z 09/02Z KATL | Weather Report, METAR, TAF, Airport Data | E6BX. E6BX App is now available. Download Now: Apple Store or Android. Request Failed. TAF. Hover over text to see …METAR KATL 101752Z VRB04KT 10SM SCT045 SCT180 BKN250 27/15 A3011 RMK AO2 SLP187 T02720150 10278 20206 58006. There is little or no wind from a variable direction. Visibility is 10 mi. The ceiling, broken or more, is 25,000 ft. The temperature and wind chill are 27 °C.KATL 120752Z 09010KT 8SM -RA BKN007 BKN015 OVC050 16/14 A2980 RMK AO2 SLP084 CIG 006V009 P0004 T01560139 $ Conditions at: KATL (ATLANTA , GA, US) observed 0752 UTC 12 October 2023 Temperature: 15.6°C (60°F) Dewpoint: 13.9°C (57°F) [RH = 90%] Pressure (altimeter): 29.80 inches Hg (1009.2 mb)Oct 8, 2023 · TAF for: KATL (Atlanta/Hartsfield I, GA, US) issued at 1559 UTC 08 Oct 2023: Text: KATL 081559Z 0816/0918 33013KT P6SM FEW200 : Forecast period: 1600 to 2300 UTC 08 October 2023: Forecast type: FROM: standard forecast or significant change: Winds: from the NNW (330 degrees) at 15 MPH (13 knots; 6.7 m/s) Visibility: 6 or more sm (10+ km) Ceiling: data at: 1225 utc 08 oct 2023. katl 081152z 33004kt 10sm few200 08/03 a3006 rmk ao2 slp180 t00830033 10111 20083 53010 $ katl 081052z 32005kt 10sm clr 08/03 a3005 rmk ao2 slp175 t00830033 $ katl 080952z 32004kt 10sm clr 09/03 a3004 rmk ao2 slp171 t00940033 $ katl 080852z 33008kt 10sm clr 10/03 a3003 rmk ao2 slp168 t01000033 55006 $ katl 080752z 33006kt 10sm clr 10/03 a3003 rmk ao2 slp168 ...KATL 120752Z 09010KT 8SM -RA BKN007 BKN015 OVC050 16/14 A2980 RMK AO2 SLP084 CIG 006V009 P0004 T01560139 $ Conditions at: KATL (ATLANTA , GA, US) observed 0752 UTC 12 October 2023 Temperature: 15.6°C (60°F) Dewpoint: 13.9°C (57°F) [RH = 90%] Pressure (altimeter): 29.80 inches Hg (1009.2 mb)data at: 0635 utc 06 oct 2023. mmun 060549z 00000kt 7sm sct015 26/25 a2985 rmk slp110 57005 904 8/500 taf mmun 060452z 0606/0706 09005kt p6sm sct015 tx32/0621z tn25/0612z tempo 0608/0609 5sm -ra bkn015 fm061400 12005kt 6sm vc -ra bkn015 tempo 0618/0620 4sm ra bkn025cb fm062100 12005kt p6sm vc -ra bkn020 bkn080 prob40 …METAR for: KATL (Atlanta/Hartsfield I, GA, US) Text: KATL 180859Z 00000KT 1/2SM R09R/1800V2200FT FG VV002 14/13 A3000 RMK AO2 T01390133: Temperature:TAF for: KATL (Atlanta/Hartsfield I, GA, US) issued at 2326 UTC 01 Oct 2023: Text: KATL 012326Z 0200/0306 08007KT P6SM FEW050 SCT200 : Forecast period: 0000 to 0200 UTC 02 October 2023: Forecast type: FROM: standard forecast or significant change: Winds: from the E (80 degrees) at 8 MPH (7 knots; 3.6 m/s)taf: katl 061944z 0620/0724 33007kt p6sm few040 bkn080 bkn100 fm062300 31007kt p6sm vcsh bkn040 tempo 0700/0703 4sm -shra bkn040 fm070600 33011kt p6sm sct250 fm071200 33013g25kt p6sm few250 Weather observations and forecasts of more than 4000 airports (METAR and TAF reports).Impacts TAF Board. TAF Home. Plot. Data. Board. Info. For situational awareness. Not to be used for flight planning purposes. IDs: KATL - Atlanta/Hartsfield I, GA, US. Issued at 1732 UTC 27 Aug 2023. Updated at 1915 UTC 27 Aug 2023. Potential Impact: None: Slight: Moderate: High: Time 1852Z 27/20Z 27/21Z 27/22Z 27/23Z 28/00Z5 kt. METAR KATL 150752Z 29005KT 10SM BKN180 BKN250 25/22 A2995 RMK AO2 SLP129 T02500217 $. Easy access to all aviation weather on your mobile phone and tablet. With many features not available on the website, like offline support and a personal airport list.ZTL Airspace Summary / KATL TAF For ATC Planning Purposes Only; ZTL Airspace Summary: Scattered showers will continue across southern portions of airspace through this afternoon; cells will move north to northwest at 5-10kts with tops to FL300.Impacts TAF Board. TAF Home. Plot. Data. Board. Info. For situational awareness. Not to be used for flight planning purposes. IDs: KATL - Atlanta/Hartsfield I, GA, US. Issued at 1124 UTC 12 Feb 2023. Updated at 1125 UTC 12 Feb 2023. Potential Impact: None: Slight: Moderate: High: Time 1052Z 12/12Z 12/13Z 12/14Z 12/15Z 12/16ZWeather radar, wind and waves forecast for kiters, surfers, paragliders, pilots, sailors and anyone else. Worldwide animated weather map, with easy to use layers and precise spot forecast. METAR, TAF and NOTAMs for any airport in the World. SYNOP codes from weather stations and buoys. Forecast models ECMWF, GFS, NAM and NEMS Oct 10, 2023 · TAF for: KATL (Atlanta/Hartsfield I, GA, US) issued at 2157 UTC 12 Oct 2023. Text: KATL 122157Z 1222/1324 05015KT P6SM BKN022 OVC030. Forecast period: 2200 UTC 12 October 2023 to 0000 UTC 13 October 2023. Forecast type: FROM: standard forecast or significant change. Updated at 2217 UTC 11 Oct 2023. NOTE: LAMP data beyond the time of the TAF data is denoted as LAMP in Type and colored magenta. For situational awareness. Not to be used for flight planning purposes. Aviation Weather Center Homepage provides comprehensive user-friendly aviation weather Text products and graphics.data at: 1401 utc 29 sep 2023. rksi 291330z 25003kt cavok 21/16 q1012 nosig taf rksi 291100z 2912/3018 29006kt cavok tn18/2918z tx24/3006z becmg 2922/2924 23006kt 9999 few012 sct030 bkn080 tempo 3000/3003 23012g25kt 7000 -ra becmg 3003/3005 29015g25kt cavok becmg 3010/3012 32013kt tempo 3012/3018 33015g25ktUpdated at 1124 UTC 01 Oct 2023. NOTE: LAMP data beyond the time of the TAF data is denoted as LAMP in Type and colored magenta. For situational awareness. Not to be used for flight planning purposes. Aviation Weather Center Homepage provides comprehensive user-friendly aviation weather Text products and graphics.cyvr 190300z 25008kt 30sm few240 15/09 a3007 rmk ci1 ci tr slp184 taf cyvr 190240z 1903/2006 26010kt p6sm sct060 becmg 1904/1906 vrb03kt fm190700 09008kt p6sm bkn060 fm191200 10008kt p6sm bkn040 tempo 1912/1920 p6sm -shra bkn020 fm192000 16008kt p6sm bkn040 tempo 1920/2002 p6sm -shra fm200200 11008kt p6sm ovc025 tempo 2002/2006 3sm -dz br sct008 ovc015 rmk nxt fcst by 190600zTAF for: KATL (Atlanta/Hartsfield I, GA, US) issued at 0148 UTC 06 Oct 2023: Text: KATL 060148Z 0602/0706 08005KT P6SM SCT150 BKN200 : Forecast period: 0200 to 0900 UTC 06 October 2023: Forecast type: FROM: standard forecast or significant change: Winds: from the E (80 degrees) at 6 MPH (5 knots; 2.6 m/s) Visibility: 6 or more …KATL 120752Z 09010KT 8SM -RA BKN007 BKN015 OVC050 16/14 A2980 RMK AO2 SLP084 CIG 006V009 P0004 T01560139 $ Conditions at: KATL (ATLANTA , GA, US) observed 0752 UTC 12 October 2023 Temperature: 15.6°C (60°F) Dewpoint: 13.9°C (57°F) [RH = 90%] Pressure (altimeter): 29.80 inches Hg (1009.2 mb) KATL - Atlanta/Hartsfield I, GA, US. Updated at: 2100 UTC 08 Sep 2023 Latest TAF at: 1945 UTC 08 Sep 2023. TAF Board. Time 2052Z 08/21Z 08/22Z 08/23Z 09/00Z 09/01Z 09/02ZOct 12, 2023 · Show TAF board. IDs: Page loaded: 08:03 UTC | 01:03 AM Pacific | 02:03 AM Mountain | 03:03 AM Central | 04:03 AM Eastern. Aviation Weather Center Homepage provides comprehensive user-friendly aviation weather Text products and graphics. Weather radar, wind and waves forecast for kiters, surfers, paragliders, pilots, sailors and anyone else. Worldwide animated weather map, with easy to use layers and precise spot forecast. METAR, TAF and NOTAMs for any airport in the World. SYNOP codes from weather stations and buoys. Forecast models ECMWF, GFS, NAM and NEMS Updated at 1735 UTC 03 Oct 2023. NOTE: LAMP data beyond the time of the TAF data is denoted as LAMP in Type and colored magenta. For situational awareness. Not to be used for flight planning purposes. Aviation Weather Center Homepage provides comprehensive user-friendly aviation weather Text products and graphics.Weather radar, wind and waves forecast for kiters, surfers, paragliders, pilots, sailors and anyone else. Worldwide animated weather map, with easy to use layers and precise spot forecast. METAR, TAF and NOTAMs for any airport in the World. SYNOP codes from weather stations and buoys. Forecast models ECMWF, GFS, NAM and NEMSAviation Weather Center Homepage provides comprehensive user-friendly aviation weather Text products and graphics.TAF for: KATL (Atlanta/Hartsfield I, GA, US) issued at 2326 UTC 01 Oct 2023: Text: KATL 012326Z 0200/0306 08007KT P6SM FEW050 SCT200 : Forecast period: 0000 to 0200 UTC 02 October 2023: Forecast type: FROM: standard forecast or significant change: Winds: from the E (80 degrees) at 8 MPH (7 knots; 3.6 m/s) Visibility: 6 or more sm (10+ km) Ceiling:METAR KATL 101852Z VRB04KT 10SM SCT050 SCT180 BKN250 28/16 A3010 RMK AO2 SLP183 T02780156. There is little or no wind from a variable direction. Visibility is 10 mi. The ceiling, broken or more, is 25,000 ft. …Hartsfield Jackson Atlanta International Airport is a large airport in Fulton County, Georgia, United States. The airport has 5 runways: 8L/26R, 8R/26L, 9L/27R, 9R/27L and 10/28. …KATL TAF Hartsfield Jackson Atlanta International Airport KATL 042336Z 0500/0606 11006KT P6SM BKN200 Observation time: 2:22 hr. ago Need help? Read our tutorial on how to read TAFs or read the parsed version below. . METAR KATL 032352Z 00000KT 10SM CLR 25/12 A3012 RMK AO2 SLP1taf katl 121720z 121818 20012kt 5sm hz bkn030 fm2 NOTE: LAMP data beyond the time of the TAF data is denoted as LAMP in Type and colored magenta. Raw TAF KJFK 091952Z 0920/1024 23014G20KT P6SM BKN060 FM092200 24012KT P6SM SCT060 FM100300 24007KT P6SM BKN050 FM101600 23010KT P6SM SCT060 Raw METAR KJFK 092251Z 25010KT 10SM FEW055 SCT075 14/05 A2979 RMK AO2 SLP087 T01390050 KJFK 092151Z 24011KT 10SM FEW055 SCT090 SCT250 14/04 A2977 RMK AO2 ... ZTL Airspace Summary / KATL TAF For ATC Planning Purposes Only; ZTL A Sunday 15 Monday 16 Tuesday 17 1 AM kt051020304060 WOW it appears that you are offline :- ( KATL - ATL Hartsfield Jackson Atlanta International Airport Rwys, info METAR …KMDW. MDW ATIS INFO N 0453Z. 28006KT 10SM BKN085 16/09 A2991 (TWO NINER NINER ONE) RMK AO2 SLP124. ILS RWY 31C APCH IN USE. LNDG AND DEPG RWYS 31C. NOTAMS... RWY 31R, 13L CLSD, RWY 22R, 4L CLSD, RWY 31L, 13R CLSD. TWY P CLSD BTN TWY G AND TWY T . Include METAR. Data at: 0819 UTC 23 Sep 2023. Region: TO...

Continue Reading